ePrivacy and GPDR Cookie Consent by Cookie Consent
EmailTwitter


Surface observations / Quebec / CYUL (71627)

Regions: Quebec | Canada | USA | Europe | France | UK | Elsewhere
Station
Display
Info & Location for CYUL (71627) | Help decoding METAR

Weather Conditions observed on 2023/12/09 at 00:00 UTC at MONTREAL INTL A, QB (CYUL)

Sky conditions: overcast.

Temperature: -5.0 Celsius.

Dewpoint: -7.0 Celsius.

Relative Humidity: 86%

Windchill Factor -12.

Winds: Northeast at 24 km/h or 13 knots.

Mean Sea level Pressure: 102.20 kilopascals.

Altimeter Setting (QNH): 102.17 kilopascals or 30.17 inches of mercury.

Horizontal visibility: 15.00 statute miles or 24.00 kilometers.

Height of the Ceiling: 549 metres ( 1800 feet ).

Coded METAR:

CYUL 090000Z 03013KT 15SM BKN018 OVC100 M05/M07 A3017 RMK SC6AC2 SLP220=